sensor_id;sensor_type;location;lat;lon;timestamp;P1;durP1;ratioP1;P2;durP2;ratioP2
2107;SDS011;1060;52.492;13.388;2022-12-18T00:00:19;34.78;;;19.83;;
2107;SDS011;1060;52.492;13.388;2022-12-18T00:02:45;34.08;;;19.95;;
2107;SDS011;1060;52.492;13.388;2022-12-18T00:05:13;36.17;;;22.88;;
2107;SDS011;1060;52.492;13.388;2022-12-18T00:07:40;32.80;;;20.35;;
2107;SDS011;1060;52.492;13.388;2022-12-18T00:10:12;31.02;;;19.30;;
2107;SDS011;1060;52.492;13.388;2022-12-18T00:12:38;37.25;;;21.55;;
2107;SDS011;1060;52.492;13.388;2022-12-18T00:15:04;37.30;;;20.42;;
2107;SDS011;1060;52.492;13.388;2022-12-18T00:17:31;32.15;;;18.90;;
2107;SDS011;1060;52.492;13.388;2022-12-18T00:19:57;32.38;;;19.10;;
2107;SDS011;1060;52.492;13.388;2022-12-18T00:22:23;35.55;;;19.73;;
2107;SDS011;1060;52.492;13.388;2022-12-18T00:24:50;34.85;;;20.77;;
2107;SDS011;1060;52.492;13.388;2022-12-18T00:27:16;38.08;;;22.58;;
2107;SDS011;1060;52.492;13.388;2022-12-18T00:29:45;39.42;;;21.92;;
2107;SDS011;1060;52.492;13.388;2022-12-18T00:32:11;33.08;;;22.98;;
2107;SDS011;1060;52.492;13.388;2022-12-18T00:34:38;42.58;;;21.63;;
2107;SDS011;1060;52.492;13.388;2022-12-18T00:37:04;47.10;;;20.73;;
2107;SDS011;1060;52.492;13.388;2022-12-18T00:39:33;40.63;;;22.48;;
2107;SDS011;1060;52.492;13.388;2022-12-18T00:42:02;34.42;;;20.02;;
2107;SDS011;1060;52.492;13.388;2022-12-18T00:44:50;40.95;;;23.60;;
2107;SDS011;1060;52.492;13.388;2022-12-18T00:47:19;43.90;;;22.83;;
2107;SDS011;1060;52.492;13.388;2022-12-18T00:49:45;34.75;;;22.58;;
2107;SDS011;1060;52.492;13.388;2022-12-18T00:52:16;33.63;;;19.52;;
2107;SDS011;1060;52.492;13.388;2022-12-18T00:54:46;30.50;;;19.38;;
2107;SDS011;1060;52.492;13.388;2022-12-18T00:57:12;33.47;;;19.75;;
2107;SDS011;1060;52.492;13.388;2022-12-18T00:59:38;34.38;;;21.30;;
2107;SDS011;1060;52.492;13.388;2022-12-18T01:02:10;33.20;;;21.42;;
2107;SDS011;1060;52.492;13.388;2022-12-18T01:04:39;36.75;;;22.58;;
2107;SDS011;1060;52.492;13.388;2022-12-18T01:07:05;43.17;;;21.05;;
2107;SDS011;1060;52.492;13.388;2022-12-18T01:09:35;26.95;;;17.08;;
2107;SDS011;1060;52.492;13.388;2022-12-18T01:12:04;35.97;;;23.23;;
2107;SDS011;1060;52.492;13.388;2022-12-18T01:14:31;29.90;;;18.80;;
2107;SDS011;1060;52.492;13.388;2022-12-18T01:16:58;33.95;;;19.00;;
2107;SDS011;1060;52.492;13.388;2022-12-18T01:19:24;34.35;;;18.50;;
2107;SDS011;1060;52.492;13.388;2022-12-18T01:21:50;32.53;;;19.52;;
2107;SDS011;1060;52.492;13.388;2022-12-18T01:24:17;35.33;;;19.95;;
2107;SDS011;1060;52.492;13.388;2022-12-18T01:26:43;41.20;;;21.08;;
2107;SDS011;1060;52.492;13.388;2022-12-18T01:29:09;32.88;;;21.63;;
2107;SDS011;1060;52.492;13.388;2022-12-18T01:31:35;38.10;;;19.17;;
2107;SDS011;1060;52.492;13.388;2022-12-18T01:34:04;34.92;;;20.00;;
2107;SDS011;1060;52.492;13.388;2022-12-18T01:36:31;37.78;;;22.48;;
2107;SDS011;1060;52.492;13.388;2022-12-18T01:39:07;29.85;;;20.63;;
2107;SDS011;1060;52.492;13.388;2022-12-18T01:41:34;32.60;;;18.67;;
2107;SDS011;1060;52.492;13.388;2022-12-18T01:47:04;34.13;;;17.75;;
2107;SDS011;1060;52.492;13.388;2022-12-18T01:49:33;34.10;;;19.88;;
2107;SDS011;1060;52.492;13.388;2022-12-18T01:51:59;37.88;;;21.70;;
2107;SDS011;1060;52.492;13.388;2022-12-18T01:54:29;38.97;;;21.02;;
2107;SDS011;1060;52.492;13.388;2022-12-18T01:56:55;31.08;;;19.30;;
2107;SDS011;1060;52.492;13.388;2022-12-18T01:59:24;34.00;;;20.35;;
2107;SDS011;1060;52.492;13.388;2022-12-18T02:01:50;36.88;;;20.27;;
2107;SDS011;1060;52.492;13.388;2022-12-18T02:04:20;38.17;;;21.40;;
2107;SDS011;1060;52.492;13.388;2022-12-18T02:06:53;40.85;;;21.80;;
2107;SDS011;1060;52.492;13.388;2022-12-18T02:09:23;31.98;;;21.55;;
2107;SDS011;1060;52.492;13.388;2022-12-18T02:12:10;36.13;;;24.50;;
2107;SDS011;1060;52.492;13.388;2022-12-18T02:15:02;38.55;;;20.08;;
2107;SDS011;1060;52.492;13.388;2022-12-18T02:17:29;30.50;;;21.40;;
2107;SDS011;1060;52.492;13.388;2022-12-18T02:25:19;44.50;;;23.65;;
2107;SDS011;1060;52.492;13.388;2022-12-18T02:27:47;52.15;;;26.45;;
2107;SDS011;1060;52.492;13.388;2022-12-18T02:30:15;48.33;;;26.10;;
2107;SDS011;1060;52.492;13.388;2022-12-18T02:32:42;51.30;;;27.65;;
2107;SDS011;1060;52.492;13.388;2022-12-18T02:35:14;47.72;;;25.70;;
2107;SDS011;1060;52.492;13.388;2022-12-18T02:37:42;40.08;;;24.02;;
2107;SDS011;1060;52.492;13.388;2022-12-18T02:40:09;43.85;;;24.30;;
2107;SDS011;1060;52.492;13.388;2022-12-18T02:42:36;42.85;;;24.90;;
2107;SDS011;1060;52.492;13.388;2022-12-18T02:45:13;43.30;;;25.05;;
2107;SDS011;1060;52.492;13.388;2022-12-18T02:47:40;48.55;;;24.88;;
2107;SDS011;1060;52.492;13.388;2022-12-18T02:50:16;51.33;;;29.08;;
2107;SDS011;1060;52.492;13.388;2022-12-18T03:00:41;44.72;;;27.50;;
2107;SDS011;1060;52.492;13.388;2022-12-18T03:03:11;48.88;;;25.67;;
2107;SDS011;1060;52.492;13.388;2022-12-18T03:05:44;48.10;;;27.52;;
2107;SDS011;1060;52.492;13.388;2022-12-18T03:08:21;49.58;;;28.02;;
2107;SDS011;1060;52.492;13.388;2022-12-18T03:10:53;51.33;;;28.88;;
2107;SDS011;1060;52.492;13.388;2022-12-18T03:13:28;43.13;;;26.23;;
2107;SDS011;1060;52.492;13.388;2022-12-18T03:15:57;46.75;;;26.88;;
2107;SDS011;1060;52.492;13.388;2022-12-18T03:18:48;43.85;;;25.95;;
2107;SDS011;1060;52.492;13.388;2022-12-18T03:21:17;42.40;;;26.00;;
2107;SDS011;1060;52.492;13.388;2022-12-18T03:23:49;46.25;;;25.85;;
2107;SDS011;1060;52.492;13.388;2022-12-18T03:26:19;48.30;;;26.55;;
2107;SDS011;1060;52.492;13.388;2022-12-18T03:28:51;61.72;;;27.40;;
2107;SDS011;1060;52.492;13.388;2022-12-18T03:31:24;58.08;;;30.83;;
2107;SDS011;1060;52.492;13.388;2022-12-18T03:34:03;52.42;;;27.45;;
2107;SDS011;1060;52.492;13.388;2022-12-18T03:36:38;51.03;;;29.73;;
2107;SDS011;1060;52.492;13.388;2022-12-18T03:39:04;55.47;;;29.40;;
2107;SDS011;1060;52.492;13.388;2022-12-18T03:41:41;63.28;;;32.90;;
2107;SDS011;1060;52.492;13.388;2022-12-18T03:44:42;62.45;;;30.50;;
2107;SDS011;1060;52.492;13.388;2022-12-18T03:47:12;50.00;;;28.80;;
2107;SDS011;1060;52.492;13.388;2022-12-18T03:52:15;61.80;;;33.95;;
2107;SDS011;1060;52.492;13.388;2022-12-18T03:54:43;55.72;;;29.85;;
2107;SDS011;1060;52.492;13.388;2022-12-18T03:57:19;62.83;;;34.40;;
2107;SDS011;1060;52.492;13.388;2022-12-18T03:59:50;56.47;;;28.98;;
2107;SDS011;1060;52.492;13.388;2022-12-18T04:02:21;58.88;;;33.15;;
2107;SDS011;1060;52.492;13.388;2022-12-18T04:04:50;55.00;;;26.83;;
2107;SDS011;1060;52.492;13.388;2022-12-18T04:07:18;65.05;;;31.40;;
2107;SDS011;1060;52.492;13.388;2022-12-18T04:09:45;54.58;;;28.30;;
2107;SDS011;1060;52.492;13.388;2022-12-18T04:12:12;48.00;;;29.30;;
2107;SDS011;1060;52.492;13.388;2022-12-18T04:14:43;58.58;;;27.63;;
2107;SDS011;1060;52.492;13.388;2022-12-18T04:17:12;60.88;;;30.42;;
2107;SDS011;1060;52.492;13.388;2022-12-18T04:19:41;52.42;;;25.73;;
2107;SDS011;1060;52.492;13.388;2022-12-18T04:22:09;46.15;;;25.42;;
2107;SDS011;1060;52.492;13.388;2022-12-18T04:24:41;63.03;;;28.30;;
2107;SDS011;1060;52.492;13.388;2022-12-18T04:27:15;46.50;;;25.58;;
2107;SDS011;1060;52.492;13.388;2022-12-18T04:29:46;46.20;;;25.50;;
2107;SDS011;1060;52.492;13.388;2022-12-18T04:32:16;48.65;;;24.00;;
2107;SDS011;1060;52.492;13.388;2022-12-18T04:34:43;53.60;;;26.00;;
2107;SDS011;1060;52.492;13.388;2022-12-18T04:37:10;61.70;;;28.52;;
2107;SDS011;1060;52.492;13.388;2022-12-18T04:39:37;42.70;;;26.42;;
2107;SDS011;1060;52.492;13.388;2022-12-18T04:42:09;40.67;;;23.17;;
2107;SDS011;1060;52.492;13.388;2022-12-18T04:44:35;44.50;;;27.67;;
2107;SDS011;1060;52.492;13.388;2022-12-18T04:47:05;53.33;;;27.10;;
2107;SDS011;1060;52.492;13.388;2022-12-18T04:49:32;42.97;;;24.10;;
2107;SDS011;1060;52.492;13.388;2022-12-18T04:51:58;47.92;;;27.52;;
2107;SDS011;1060;52.492;13.388;2022-12-18T04:54:25;37.63;;;21.95;;
2107;SDS011;1060;52.492;13.388;2022-12-18T04:56:54;51.17;;;25.48;;
2107;SDS011;1060;52.492;13.388;2022-12-18T04:59:20;48.85;;;29.75;;
2107;SDS011;1060;52.492;13.388;2022-12-18T05:01:52;44.70;;;24.42;;
2107;SDS011;1060;52.492;13.388;2022-12-18T05:04:19;43.88;;;25.50;;
2107;SDS011;1060;52.492;13.388;2022-12-18T05:09:47;52.00;;;27.98;;
2107;SDS011;1060;52.492;13.388;2022-12-18T05:12:43;43.08;;;20.48;;
2107;SDS011;1060;52.492;13.388;2022-12-18T05:19:05;41.55;;;22.02;;
2107;SDS011;1060;52.492;13.388;2022-12-18T05:22:01;36.58;;;20.65;;
2107;SDS011;1060;52.492;13.388;2022-12-18T05:25:06;44.50;;;22.75;;
2107;SDS011;1060;52.492;13.388;2022-12-18T05:28:03;78.07;;;45.22;;
2107;SDS011;1060;52.492;13.388;2022-12-18T05:31:51;56.33;;;31.13;;
2107;SDS011;1060;52.492;13.388;2022-12-18T05:34:54;43.90;;;23.17;;
2107;SDS011;1060;52.492;13.388;2022-12-18T05:41:59;58.80;;;35.40;;
2107;SDS011;1060;52.492;13.388;2022-12-18T05:48:21;57.85;;;30.88;;
2107;SDS011;1060;52.492;13.388;2022-12-18T05:54:23;47.60;;;31.25;;
2107;SDS011;1060;52.492;13.388;2022-12-18T05:57:44;52.95;;;32.30;;
2107;SDS011;1060;52.492;13.388;2022-12-18T06:04:32;43.25;;;26.30;;
2107;SDS011;1060;52.492;13.388;2022-12-18T06:14:08;39.70;;;20.25;;
2107;SDS011;1060;52.492;13.388;2022-12-18T06:19:54;39.78;;;26.60;;
2107;SDS011;1060;52.492;13.388;2022-12-18T06:22:54;47.33;;;24.23;;
2107;SDS011;1060;52.492;13.388;2022-12-18T06:25:55;54.58;;;24.30;;
2107;SDS011;1060;52.492;13.388;2022-12-18T06:31:58;43.50;;;24.33;;
2107;SDS011;1060;52.492;13.388;2022-12-18T06:44:21;40.88;;;22.25;;
2107;SDS011;1060;52.492;13.388;2022-12-18T06:47:48;41.50;;;24.77;;
2107;SDS011;1060;52.492;13.388;2022-12-18T06:50:58;42.97;;;25.13;;
2107;SDS011;1060;52.492;13.388;2022-12-18T06:53:57;42.20;;;22.27;;
2107;SDS011;1060;52.492;13.388;2022-12-18T07:03:11;38.10;;;21.77;;
2107;SDS011;1060;52.492;13.388;2022-12-18T07:06:13;40.88;;;22.75;;
2107;SDS011;1060;52.492;13.388;2022-12-18T07:09:12;44.33;;;23.08;;
2107;SDS011;1060;52.492;13.388;2022-12-18T07:11:50;43.78;;;23.92;;
2107;SDS011;1060;52.492;13.388;2022-12-18T07:14:49;48.33;;;25.42;;
2107;SDS011;1060;52.492;13.388;2022-12-18T07:21:15;47.75;;;25.80;;
2107;SDS011;1060;52.492;13.388;2022-12-18T07:27:42;42.72;;;22.83;;
2107;SDS011;1060;52.492;13.388;2022-12-18T07:30:43;39.17;;;22.80;;
2107;SDS011;1060;52.492;13.388;2022-12-18T07:36:44;47.17;;;27.30;;
2107;SDS011;1060;52.492;13.388;2022-12-18T07:39:46;55.13;;;25.40;;
2107;SDS011;1060;52.492;13.388;2022-12-18T07:43:02;46.85;;;31.05;;
2107;SDS011;1060;52.492;13.388;2022-12-18T08:29:35;46.88;;;24.20;;
2107;SDS011;1060;52.492;13.388;2022-12-18T08:40:21;39.53;;;25.92;;
2107;SDS011;1060;52.492;13.388;2022-12-18T08:43:09;31.48;;;20.02;;
2107;SDS011;1060;52.492;13.388;2022-12-18T09:06:38;41.40;;;20.15;;
2107;SDS011;1060;52.492;13.388;2022-12-18T09:09:23;35.58;;;21.52;;
2107;SDS011;1060;52.492;13.388;2022-12-18T09:11:55;28.75;;;20.13;;
2107;SDS011;1060;52.492;13.388;2022-12-18T09:14:35;32.08;;;20.40;;
2107;SDS011;1060;52.492;13.388;2022-12-18T09:17:01;34.10;;;20.17;;
2107;SDS011;1060;52.492;13.388;2022-12-18T09:19:39;36.25;;;23.15;;
2107;SDS011;1060;52.492;13.388;2022-12-18T09:22:05;41.80;;;25.58;;
2107;SDS011;1060;52.492;13.388;2022-12-18T09:24:36;40.28;;;23.75;;
2107;SDS011;1060;52.492;13.388;2022-12-18T09:27:22;38.47;;;23.45;;
2107;SDS011;1060;52.492;13.388;2022-12-18T09:30:20;35.03;;;24.23;;
2107;SDS011;1060;52.492;13.388;2022-12-18T09:56:35;43.33;;;24.15;;
2107;SDS011;1060;52.492;13.388;2022-12-18T09:59:34;43.42;;;23.63;;
2107;SDS011;1060;52.492;13.388;2022-12-18T10:02:25;38.95;;;25.20;;
2107;SDS011;1060;52.492;13.388;2022-12-18T10:10:46;44.58;;;25.85;;
2107;SDS011;1060;52.492;13.388;2022-12-18T10:13:26;36.67;;;24.40;;
2107;SDS011;1060;52.492;13.388;2022-12-18T10:21:26;44.35;;;26.33;;
2107;SDS011;1060;52.492;13.388;2022-12-18T10:24:15;35.08;;;22.73;;
2107;SDS011;1060;52.492;13.388;2022-12-18T10:26:42;38.10;;;22.05;;
2107;SDS011;1060;52.492;13.388;2022-12-18T10:29:14;40.72;;;24.98;;
2107;SDS011;1060;52.492;13.388;2022-12-18T10:31:53;49.47;;;25.30;;
2107;SDS011;1060;52.492;13.388;2022-12-18T10:34:26;43.85;;;26.35;;
2107;SDS011;1060;52.492;13.388;2022-12-18T11:03:42;41.58;;;22.38;;
2107;SDS011;1060;52.492;13.388;2022-12-18T11:06:11;36.55;;;23.75;;
2107;SDS011;1060;52.492;13.388;2022-12-18T11:50:55;33.05;;;21.27;;
2107;SDS011;1060;52.492;13.388;2022-12-18T12:04:38;34.78;;;20.23;;
2107;SDS011;1060;52.492;13.388;2022-12-18T12:13:39;32.88;;;18.67;;
2107;SDS011;1060;52.492;13.388;2022-12-18T12:22:50;32.50;;;22.67;;
2107;SDS011;1060;52.492;13.388;2022-12-18T12:25:34;27.80;;;21.35;;
2107;SDS011;1060;52.492;13.388;2022-12-18T12:28:47;30.77;;;18.35;;
2107;SDS011;1060;52.492;13.388;2022-12-18T12:42:13;39.53;;;20.73;;
2107;SDS011;1060;52.492;13.388;2022-12-18T12:45:01;39.95;;;22.00;;
2107;SDS011;1060;52.492;13.388;2022-12-18T12:47:38;29.88;;;19.80;;
2107;SDS011;1060;52.492;13.388;2022-12-18T12:50:12;28.25;;;22.27;;
2107;SDS011;1060;52.492;13.388;2022-12-18T12:52:54;33.65;;;22.20;;
2107;SDS011;1060;52.492;13.388;2022-12-18T12:55:44;29.75;;;19.95;;
2107;SDS011;1060;52.492;13.388;2022-12-18T13:05:59;34.05;;;21.83;;
2107;SDS011;1060;52.492;13.388;2022-12-18T13:08:30;34.47;;;21.48;;
2107;SDS011;1060;52.492;13.388;2022-12-18T13:10:59;33.33;;;23.50;;
2107;SDS011;1060;52.492;13.388;2022-12-18T13:13:54;34.15;;;20.67;;
2107;SDS011;1060;52.492;13.388;2022-12-18T13:20:04;35.83;;;22.45;;
2107;SDS011;1060;52.492;13.388;2022-12-18T13:25:39;29.38;;;22.48;;
2107;SDS011;1060;52.492;13.388;2022-12-18T13:28:09;37.83;;;24.25;;
2107;SDS011;1060;52.492;13.388;2022-12-18T13:40:55;35.05;;;22.48;;
2107;SDS011;1060;52.492;13.388;2022-12-18T13:48:36;36.40;;;21.77;;
2107;SDS011;1060;52.492;13.388;2022-12-18T13:51:08;34.28;;;21.95;;
2107;SDS011;1060;52.492;13.388;2022-12-18T13:53:51;38.10;;;23.67;;
2107;SDS011;1060;52.492;13.388;2022-12-18T13:56:22;37.50;;;24.00;;
2107;SDS011;1060;52.492;13.388;2022-12-18T14:01:56;38.53;;;26.33;;
2107;SDS011;1060;52.492;13.388;2022-12-18T14:04:30;40.78;;;23.63;;
2107;SDS011;1060;52.492;13.388;2022-12-18T14:09:58;37.67;;;26.90;;
2107;SDS011;1060;52.492;13.388;2022-12-18T14:17:54;47.40;;;28.17;;
2107;SDS011;1060;52.492;13.388;2022-12-18T14:20:21;43.33;;;28.13;;
2107;SDS011;1060;52.492;13.388;2022-12-18T14:22:48;47.03;;;27.33;;
2107;SDS011;1060;52.492;13.388;2022-12-18T14:25:21;50.30;;;33.97;;
2107;SDS011;1060;52.492;13.388;2022-12-18T14:30:37;35.15;;;25.55;;
2107;SDS011;1060;52.492;13.388;2022-12-18T14:35:40;40.85;;;28.90;;
2107;SDS011;1060;52.492;13.388;2022-12-18T14:40:36;41.22;;;30.50;;
2107;SDS011;1060;52.492;13.388;2022-12-18T14:43:02;44.83;;;27.73;;
2107;SDS011;1060;52.492;13.388;2022-12-18T14:47:58;40.70;;;27.02;;
2107;SDS011;1060;52.492;13.388;2022-12-18T14:50:25;49.03;;;30.35;;
2107;SDS011;1060;52.492;13.388;2022-12-18T14:52:51;45.72;;;25.80;;
2107;SDS011;1060;52.492;13.388;2022-12-18T14:55:18;36.95;;;26.95;;
2107;SDS011;1060;52.492;13.388;2022-12-18T14:57:44;31.40;;;24.10;;
2107;SDS011;1060;52.492;13.388;2022-12-18T15:00:21;33.00;;;24.60;;
2107;SDS011;1060;52.492;13.388;2022-12-18T15:02:54;31.13;;;25.83;;
2107;SDS011;1060;52.492;13.388;2022-12-18T15:05:28;31.85;;;20.95;;
2107;SDS011;1060;52.492;13.388;2022-12-18T15:07:55;33.60;;;22.65;;
2107;SDS011;1060;52.492;13.388;2022-12-18T15:10:22;43.25;;;27.88;;
2107;SDS011;1060;52.492;13.388;2022-12-18T15:26:05;32.35;;;25.60;;
2107;SDS011;1060;52.492;13.388;2022-12-18T15:31:05;31.33;;;22.48;;
2107;SDS011;1060;52.492;13.388;2022-12-18T15:33:42;37.33;;;26.80;;
2107;SDS011;1060;52.492;13.388;2022-12-18T15:36:12;32.15;;;24.20;;
2107;SDS011;1060;52.492;13.388;2022-12-18T15:38:52;38.97;;;24.88;;
2107;SDS011;1060;52.492;13.388;2022-12-18T15:41:27;34.97;;;24.35;;
2107;SDS011;1060;52.492;13.388;2022-12-18T15:43:53;28.40;;;23.35;;
2107;SDS011;1060;52.492;13.388;2022-12-18T15:46:20;35.45;;;24.70;;
2107;SDS011;1060;52.492;13.388;2022-12-18T15:48:48;28.95;;;20.98;;
2107;SDS011;1060;52.492;13.388;2022-12-18T15:51:33;32.13;;;22.05;;
2107;SDS011;1060;52.492;13.388;2022-12-18T15:54:08;23.75;;;19.77;;
2107;SDS011;1060;52.492;13.388;2022-12-18T15:56:39;30.80;;;20.63;;
2107;SDS011;1060;52.492;13.388;2022-12-18T15:59:25;25.65;;;19.02;;
2107;SDS011;1060;52.492;13.388;2022-12-18T16:01:59;33.15;;;21.02;;
2107;SDS011;1060;52.492;13.388;2022-12-18T16:04:25;25.17;;;19.65;;
2107;SDS011;1060;52.492;13.388;2022-12-18T16:06:52;32.55;;;22.23;;
2107;SDS011;1060;52.492;13.388;2022-12-18T16:09:18;27.52;;;19.10;;
2107;SDS011;1060;52.492;13.388;2022-12-18T16:11:44;27.27;;;20.75;;
2107;SDS011;1060;52.492;13.388;2022-12-18T16:14:17;29.10;;;22.10;;
2107;SDS011;1060;52.492;13.388;2022-12-18T16:16:51;26.42;;;18.15;;
2107;SDS011;1060;52.492;13.388;2022-12-18T16:19:20;29.10;;;20.75;;
2107;SDS011;1060;52.492;13.388;2022-12-18T16:22:17;26.50;;;21.80;;
2107;SDS011;1060;52.492;13.388;2022-12-18T16:24:47;28.73;;;20.50;;
2107;SDS011;1060;52.492;13.388;2022-12-18T16:27:29;23.33;;;20.90;;
2107;SDS011;1060;52.492;13.388;2022-12-18T16:29:59;25.92;;;21.30;;
2107;SDS011;1060;52.492;13.388;2022-12-18T16:32:25;28.92;;;21.10;;
2107;SDS011;1060;52.492;13.388;2022-12-18T16:34:51;25.17;;;20.73;;
2107;SDS011;1060;52.492;13.388;2022-12-18T16:37:20;27.80;;;21.45;;
2107;SDS011;1060;52.492;13.388;2022-12-18T16:39:46;29.95;;;23.67;;
2107;SDS011;1060;52.492;13.388;2022-12-18T16:42:15;28.30;;;21.67;;
2107;SDS011;1060;52.492;13.388;2022-12-18T16:44:44;32.55;;;22.98;;
2107;SDS011;1060;52.492;13.388;2022-12-18T16:47:11;24.27;;;21.13;;
2107;SDS011;1060;52.492;13.388;2022-12-18T16:49:37;25.80;;;22.70;;
2107;SDS011;1060;52.492;13.388;2022-12-18T16:52:04;39.35;;;24.27;;
2107;SDS011;1060;52.492;13.388;2022-12-18T16:54:31;29.92;;;23.52;;
2107;SDS011;1060;52.492;13.388;2022-12-18T16:56:59;30.73;;;26.05;;
2107;SDS011;1060;52.492;13.388;2022-12-18T16:59:25;33.15;;;24.02;;
2107;SDS011;1060;52.492;13.388;2022-12-18T17:01:53;29.00;;;22.20;;
2107;SDS011;1060;52.492;13.388;2022-12-18T17:04:21;34.17;;;23.63;;
2107;SDS011;1060;52.492;13.388;2022-12-18T17:06:47;33.70;;;23.98;;
2107;SDS011;1060;52.492;13.388;2022-12-18T17:09:17;31.92;;;23.73;;
2107;SDS011;1060;52.492;13.388;2022-12-18T17:11:47;38.42;;;25.27;;
2107;SDS011;1060;52.492;13.388;2022-12-18T17:14:14;39.00;;;26.52;;
2107;SDS011;1060;52.492;13.388;2022-12-18T17:16:41;33.47;;;23.13;;
2107;SDS011;1060;52.492;13.388;2022-12-18T17:19:07;39.17;;;24.23;;
2107;SDS011;1060;52.492;13.388;2022-12-18T17:21:34;26.48;;;21.83;;
2107;SDS011;1060;52.492;13.388;2022-12-18T17:24:00;41.25;;;26.75;;
2107;SDS011;1060;52.492;13.388;2022-12-18T17:26:27;26.58;;;20.35;;
2107;SDS011;1060;52.492;13.388;2022-12-18T19:22:18;51.20;;;30.15;;
2107;SDS011;1060;52.492;13.388;2022-12-18T19:24:44;39.60;;;27.38;;
2107;SDS011;1060;52.492;13.388;2022-12-18T19:27:21;46.33;;;30.98;;
2107;SDS011;1060;52.492;13.388;2022-12-18T19:29:48;44.30;;;28.05;;
2107;SDS011;1060;52.492;13.388;2022-12-18T19:32:14;46.63;;;29.38;;
2107;SDS011;1060;52.492;13.388;2022-12-18T20:34:17;51.08;;;29.35;;
2107;SDS011;1060;52.492;13.388;2022-12-18T20:36:46;41.85;;;30.92;;
2107;SDS011;1060;52.492;13.388;2022-12-18T20:39:12;47.80;;;30.83;;
2107;SDS011;1060;52.492;13.388;2022-12-18T20:41:38;39.90;;;29.50;;
2107;SDS011;1060;52.492;13.388;2022-12-18T20:44:09;50.15;;;31.02;;
2107;SDS011;1060;52.492;13.388;2022-12-18T20:46:42;49.20;;;29.80;;
2107;SDS011;1060;52.492;13.388;2022-12-18T20:49:08;41.28;;;29.63;;
2107;SDS011;1060;52.492;13.388;2022-12-18T20:51:35;56.20;;;28.77;;
2107;SDS011;1060;52.492;13.388;2022-12-18T20:54:01;45.60;;;29.92;;
2107;SDS011;1060;52.492;13.388;2022-12-18T20:56:28;39.38;;;27.70;;
2107;SDS011;1060;52.492;13.388;2022-12-18T20:58:57;43.92;;;29.60;;
2107;SDS011;1060;52.492;13.388;2022-12-18T21:01:24;45.65;;;29.58;;
2107;SDS011;1060;52.492;13.388;2022-12-18T21:03:51;44.80;;;29.52;;
2107;SDS011;1060;52.492;13.388;2022-12-18T21:06:18;48.42;;;28.42;;
2107;SDS011;1060;52.492;13.388;2022-12-18T21:08:44;50.53;;;28.25;;
2107;SDS011;1060;52.492;13.388;2022-12-18T21:14:03;47.60;;;27.98;;
2107;SDS011;1060;52.492;13.388;2022-12-18T21:16:30;45.85;;;28.13;;
2107;SDS011;1060;52.492;13.388;2022-12-18T21:18:57;47.28;;;28.77;;
2107;SDS011;1060;52.492;13.388;2022-12-18T21:21:23;49.72;;;29.55;;
2107;SDS011;1060;52.492;13.388;2022-12-18T21:23:49;39.22;;;28.17;;
2107;SDS011;1060;52.492;13.388;2022-12-18T21:26:19;56.00;;;34.60;;
2107;SDS011;1060;52.492;13.388;2022-12-18T21:28:46;46.30;;;32.13;;
2107;SDS011;1060;52.492;13.388;2022-12-18T21:31:12;40.90;;;27.10;;
2107;SDS011;1060;52.492;13.388;2022-12-18T21:33:39;40.05;;;25.95;;
2107;SDS011;1060;52.492;13.388;2022-12-18T21:36:05;39.00;;;26.58;;
2107;SDS011;1060;52.492;13.388;2022-12-18T21:38:35;40.92;;;26.58;;
2107;SDS011;1060;52.492;13.388;2022-12-18T21:41:05;41.58;;;26.60;;
2107;SDS011;1060;52.492;13.388;2022-12-18T21:43:37;48.60;;;30.08;;
2107;SDS011;1060;52.492;13.388;2022-12-18T21:46:34;36.53;;;28.70;;
2107;SDS011;1060;52.492;13.388;2022-12-18T21:49:00;43.65;;;26.92;;
2107;SDS011;1060;52.492;13.388;2022-12-18T21:51:27;46.13;;;30.80;;
2107;SDS011;1060;52.492;13.388;2022-12-18T21:53:55;44.17;;;25.58;;
2107;SDS011;1060;52.492;13.388;2022-12-18T21:56:22;38.90;;;27.13;;
2107;SDS011;1060;52.492;13.388;2022-12-18T21:58:48;47.58;;;27.30;;
2107;SDS011;1060;52.492;13.388;2022-12-18T22:01:18;40.78;;;26.63;;
2107;SDS011;1060;52.492;13.388;2022-12-18T22:03:44;46.95;;;28.63;;
2107;SDS011;1060;52.492;13.388;2022-12-18T22:06:10;35.85;;;26.25;;
2107;SDS011;1060;52.492;13.388;2022-12-18T22:08:37;44.63;;;27.70;;
2107;SDS011;1060;52.492;13.388;2022-12-18T22:11:03;46.33;;;25.17;;
2107;SDS011;1060;52.492;13.388;2022-12-18T22:13:29;37.97;;;25.48;;
2107;SDS011;1060;52.492;13.388;2022-12-18T22:15:58;40.45;;;28.92;;
2107;SDS011;1060;52.492;13.388;2022-12-18T22:18:25;44.72;;;25.65;;
2107;SDS011;1060;52.492;13.388;2022-12-18T22:20:59;42.30;;;23.80;;
2107;SDS011;1060;52.492;13.388;2022-12-18T22:23:25;50.33;;;26.92;;
2107;SDS011;1060;52.492;13.388;2022-12-18T22:25:51;39.55;;;23.10;;
2107;SDS011;1060;52.492;13.388;2022-12-18T22:28:17;34.95;;;25.38;;
2107;SDS011;1060;52.492;13.388;2022-12-18T22:31:02;38.08;;;24.58;;
2107;SDS011;1060;52.492;13.388;2022-12-18T22:33:28;33.35;;;23.15;;
2107;SDS011;1060;52.492;13.388;2022-12-18T22:35:54;30.95;;;23.45;;
2107;SDS011;1060;52.492;13.388;2022-12-18T22:38:21;45.15;;;27.85;;
2107;SDS011;1060;52.492;13.388;2022-12-18T22:40:47;35.67;;;25.25;;
2107;SDS011;1060;52.492;13.388;2022-12-18T22:43:13;36.03;;;26.10;;
2107;SDS011;1060;52.492;13.388;2022-12-18T22:45:39;38.55;;;23.90;;
2107;SDS011;1060;52.492;13.388;2022-12-18T22:48:06;34.75;;;22.17;;
2107;SDS011;1060;52.492;13.388;2022-12-18T22:50:32;35.50;;;23.80;;
2107;SDS011;1060;52.492;13.388;2022-12-18T22:52:58;37.45;;;23.98;;
2107;SDS011;1060;52.492;13.388;2022-12-18T22:55:24;36.00;;;22.38;;
2107;SDS011;1060;52.492;13.388;2022-12-18T22:57:51;35.95;;;23.13;;
2107;SDS011;1060;52.492;13.388;2022-12-18T23:00:17;36.30;;;23.65;;
2107;SDS011;1060;52.492;13.388;2022-12-18T23:02:43;45.25;;;26.17;;
2107;SDS011;1060;52.492;13.388;2022-12-18T23:05:09;37.83;;;22.75;;
2107;SDS011;1060;52.492;13.388;2022-12-18T23:07:35;40.42;;;24.25;;
2107;SDS011;1060;52.492;13.388;2022-12-18T23:10:01;38.10;;;25.27;;
2107;SDS011;1060;52.492;13.388;2022-12-18T23:12:28;34.30;;;23.73;;
2107;SDS011;1060;52.492;13.388;2022-12-18T23:14:54;36.22;;;21.27;;
2107;SDS011;1060;52.492;13.388;2022-12-18T23:17:20;38.05;;;24.33;;
2107;SDS011;1060;52.492;13.388;2022-12-18T23:19:46;36.05;;;26.60;;
2107;SDS011;1060;52.492;13.388;2022-12-18T23:22:12;36.13;;;27.73;;
2107;SDS011;1060;52.492;13.388;2022-12-18T23:24:38;37.97;;;26.20;;
2107;SDS011;1060;52.492;13.388;2022-12-18T23:27:04;42.60;;;25.10;;
2107;SDS011;1060;52.492;13.388;2022-12-18T23:29:30;32.05;;;24.58;;
2107;SDS011;1060;52.492;13.388;2022-12-18T23:31:57;38.80;;;22.27;;
2107;SDS011;1060;52.492;13.388;2022-12-18T23:34:23;34.08;;;24.20;;
2107;SDS011;1060;52.492;13.388;2022-12-18T23:36:49;37.92;;;25.40;;
2107;SDS011;1060;52.492;13.388;2022-12-18T23:39:15;32.15;;;24.30;;
2107;SDS011;1060;52.492;13.388;2022-12-18T23:41:41;38.50;;;25.30;;
2107;SDS011;1060;52.492;13.388;2022-12-18T23:44:07;30.38;;;20.75;;
2107;SDS011;1060;52.492;13.388;2022-12-18T23:46:34;37.33;;;24.65;;
2107;SDS011;1060;52.492;13.388;2022-12-18T23:49:02;38.67;;;22.65;;
2107;SDS011;1060;52.492;13.388;2022-12-18T23:51:29;38.80;;;24.77;;
2107;SDS011;1060;52.492;13.388;2022-12-18T23:53:56;31.88;;;21.95;;
2107;SDS011;1060;52.492;13.388;2022-12-18T23:56:23;34.30;;;23.50;;
2107;SDS011;1060;52.492;13.388;2022-12-18T23:58:49;33.42;;;23.38;;
